Time;durP1;ratioP1;P1;durP2;ratioP2;P2;SDS_P1;SDS_P2;PMS_P1;PMS_P2;Temp;Humidity;BMP_temperature;BMP_pressure;BME280_temperature;BME280_humidity;BME280_pressure;Samples;Min_cycle;Max_cycle;Signal;HPM_P1;HPM_P2
2023/01/24 00:00:07;;;;;;;14.10;9.85;;;3.20;99.90;;;;;;5135461;27;20074;-53
2023/01/24 00:02:33;;;;;;;17.23;9.73;;;3.10;99.90;;;;;;5153576;27;20035;-53
2023/01/24 00:04:58;;;;;;;18.25;11.68;;;3.20;99.90;;;;;;5153944;27;20042;-54
2023/01/24 00:13:56;;;;;;;15.75;10.25;;;3.10;99.90;;;;;;5098039;28;20526;-57
2023/01/24 00:16:25;;;;;;;17.38;10.82;;;3.10;99.90;;;;;;5099926;28;20051;-56
2023/01/24 00:18:50;;;;;;;17.73;11.20;;;3.20;99.90;;;;;;5100076;28;20042;-57
2023/01/24 00:21:22;;;;;;;16.33;10.95;;;3.10;99.90;;;;;;5101022;28;20115;-56
2023/01/24 00:23:51;;;;;;;22.00;12.38;;;3.10;99.90;;;;;;5100621;28;20036;-57
2023/01/24 00:26:17;;;;;;;20.67;11.05;;;3.20;99.90;;;;;;5082323;28;20048;-57
2023/01/24 00:28:45;;;;;;;18.02;11.65;;;3.10;99.90;;;;;;5100864;28;20036;-56
2023/01/24 00:31:12;;;;;;;17.05;11.35;;;3.10;99.90;;;;;;5082431;28;20043;-57
2023/01/24 00:33:38;;;;;;;18.90;11.25;;;3.20;99.90;;;;;;5101036;28;20047;-57
2023/01/24 00:36:04;;;;;;;20.85;13.02;;;3.10;99.90;;;;;;5100974;28;20071;-56
2023/01/24 00:38:30;;;;;;;24.50;13.32;;;3.10;99.90;;;;;;5082430;28;20040;-56
2023/01/24 00:40:57;;;;;;;19.88;12.27;;;3.20;99.90;;;;;;5100394;28;20059;-57
2023/01/24 00:43:22;;;;;;;19.60;12.23;;;3.10;99.90;;;;;;5100501;28;20044;-55
2023/01/24 00:45:48;;;;;;;23.52;13.80;;;3.20;99.90;;;;;;5100743;28;20055;-57
2023/01/24 00:48:14;;;;;;;21.10;13.05;;;3.10;99.90;;;;;;5100479;28;20151;-57
2023/01/24 00:50:41;;;;;;;20.40;13.07;;;3.10;99.90;;;;;;5101014;28;20040;-57
2023/01/24 00:53:06;;;;;;;22.83;13.98;;;3.20;99.90;;;;;;5100294;28;20103;-55
2023/01/24 00:55:32;;;;;;;22.63;14.70;;;3.20;99.90;;;;;;5085268;28;20090;-56
2023/01/24 00:57:58;;;;;;;22.17;14.85;;;3.20;99.90;;;;;;5104348;28;20048;-57
2023/01/24 01:00:25;;;;;;;25.30;16.00;;;3.00;99.90;;;;;;5104476;28;20048;-57
2023/01/24 01:02:51;;;;;;;22.67;14.13;;;3.10;99.90;;;;;;5104328;28;20036;-57
2023/01/24 01:05:17;;;;;;;23.35;14.85;;;3.10;99.90;;;;;;5104378;28;20084;-58
2023/01/24 01:07:43;;;;;;;28.85;16.88;;;3.10;99.90;;;;;;5104317;28;20482;-57
2023/01/24 01:10:10;;;;;;;23.13;15.20;;;3.10;99.90;;;;;;5104103;28;20036;-56
2023/01/24 01:12:35;;;;;;;25.23;15.23;;;3.00;99.90;;;;;;5104202;28;20063;-57
2023/01/24 01:15:02;;;;;;;24.83;15.63;;;3.10;99.90;;;;;;5104105;28;20052;-57
2023/01/24 01:17:28;;;;;;;24.88;15.63;;;3.00;99.90;;;;;;5103878;28;20492;-58
2023/01/24 01:19:54;;;;;;;25.95;16.25;;;3.00;99.90;;;;;;5085567;28;20055;-59
2023/01/24 01:22:20;;;;;;;25.15;15.65;;;3.20;99.90;;;;;;5103705;28;20729;-58
2023/01/24 01:24:46;;;;;;;25.30;15.90;;;3.10;99.90;;;;;;5104133;28;20068;-58
2023/01/24 01:27:11;;;;;;;25.70;16.05;;;3.20;99.90;;;;;;5104049;28;20044;-58
2023/01/24 01:29:37;;;;;;;26.70;16.80;;;3.10;99.90;;;;;;5104265;28;20039;-58
2023/01/24 01:32:03;;;;;;;25.52;15.85;;;3.20;99.90;;;;;;5104021;28;20044;-58
2023/01/24 01:34:29;;;;;;;25.75;17.02;;;3.00;99.90;;;;;;5103870;28;20566;-58
2023/01/24 01:36:54;;;;;;;25.73;15.45;;;3.10;99.90;;;;;;5103495;28;20059;-58
2023/01/24 01:39:20;;;;;;;26.83;16.23;;;3.00;99.90;;;;;;5103689;28;20414;-57
2023/01/24 01:41:46;;;;;;;28.20;16.45;;;3.20;99.90;;;;;;5103565;28;20047;-57
2023/01/24 01:44:37;;;;;;;25.88;16.25;;;3.00;99.90;;;;;;5103343;28;20040;-57
2023/01/24 01:47:08;;;;;;;29.17;17.20;;;3.20;99.90;;;;;;5103744;28;20078;-58
2023/01/24 01:49:33;;;;;;;27.42;16.17;;;3.10;99.90;;;;;;5103352;28;20080;-58
2023/01/24 01:52:03;;;;;;;29.30;16.63;;;3.20;99.90;;;;;;5103173;28;20494;-58
2023/01/24 01:54:36;;;;;;;30.15;17.63;;;3.20;99.90;;;;;;5090943;28;20040;-57
2023/01/24 01:57:07;;;;;;;31.33;17.08;;;3.30;99.90;;;;;;5065007;28;20056;-57
2023/01/24 01:59:50;;;;;;;23.67;15.18;;;3.30;99.90;;;;;;5083504;28;20048;-58
2023/01/24 02:02:19;;;;;;;28.52;15.82;;;3.00;99.90;;;;;;5083137;28;20052;-58
2023/01/24 02:04:51;;;;;;;28.40;16.27;;;3.10;99.90;;;;;;5082369;28;20075;-58
2023/01/24 02:07:27;;;;;;;29.65;16.95;;;3.10;99.90;;;;;;5082847;28;20045;-58
2023/01/24 02:09:54;;;;;;;27.80;16.88;;;3.10;99.90;;;;;;5082616;28;20511;-57
2023/01/24 02:12:33;;;;;;;27.35;16.20;;;3.30;99.90;;;;;;5082653;28;20067;-58
2023/01/24 02:17:50;;;;;;;27.35;16.50;;;3.20;99.90;;;;;;5082702;28;20185;-58
2023/01/24 02:20:19;;;;;;;27.75;17.25;;;3.20;99.90;;;;;;5082420;28;20048;-58
2023/01/24 02:23:00;;;;;;;29.33;16.25;;;3.30;99.90;;;;;;5082443;28;20052;-58
2023/01/24 02:25:44;;;;;;;28.95;16.92;;;3.10;99.90;;;;;;5082839;28;20389;-57
2023/01/24 02:28:10;;;;;;;28.55;16.95;;;3.20;99.90;;;;;;5082300;28;20054;-58
2023/01/24 02:30:37;;;;;;;29.13;16.80;;;3.20;99.90;;;;;;5082454;28;20112;-57
2023/01/24 02:33:18;;;;;;;29.02;16.88;;;3.30;99.90;;;;;;5082242;28;20076;-57
2023/01/24 02:35:44;;;;;;;31.25;16.95;;;3.00;99.90;;;;;;5082238;28;20052;-56
2023/01/24 02:38:24;;;;;;;27.85;17.40;;;3.00;99.90;;;;;;5064680;28;20043;-58
2023/01/24 02:40:55;;;;;;;29.92;17.60;;;3.00;99.90;;;;;;5081990;28;20071;-57
2023/01/24 02:43:23;;;;;;;29.48;17.02;;;3.20;99.90;;;;;;5082127;28;20041;-57
2023/01/24 02:45:49;;;;;;;30.20;16.98;;;3.30;99.90;;;;;;5081837;28;20048;-58
2023/01/24 02:48:14;;;;;;;32.00;17.60;;;3.10;99.90;;;;;;5081953;28;20048;-57
2023/01/24 02:53:30;;;;;;;30.30;17.38;;;3.10;99.90;;;;;;5085393;28;20048;-57
2023/01/24 02:58:46;;;;;;;30.50;17.42;;;3.30;99.90;;;;;;5102223;28;20078;-58
2023/01/24 03:01:14;;;;;;;31.38;17.42;;;3.10;99.90;;;;;;5083892;28;20048;-58
2023/01/24 03:03:42;;;;;;;30.90;18.52;;;3.10;99.90;;;;;;5102570;28;20048;-58
2023/01/24 03:06:07;;;;;;;31.23;18.52;;;3.20;99.90;;;;;;5101963;28;20126;-57
2023/01/24 03:08:34;;;;;;;34.60;19.02;;;3.10;99.90;;;;;;5102150;28;20037;-58
2023/01/24 03:11:00;;;;;;;32.30;16.52;;;3.40;99.90;;;;;;5101885;28;20132;-58
2023/01/24 03:35:24;;;;;;;25.60;14.10;;;3.30;99.90;;;;;;5101596;28;20077;-55
2023/01/24 03:40:35;;;;;;;23.83;13.88;;;3.30;99.90;;;;;;5083285;28;20074;-57
2023/01/24 03:43:01;;;;;;;24.35;14.63;;;3.10;99.90;;;;;;5082963;28;20062;-57
2023/01/24 03:45:30;;;;;;;24.00;14.95;;;3.10;99.90;;;;;;5101425;28;20081;-58
2023/01/24 03:48:01;;;;;;;22.60;13.07;;;3.10;99.90;;;;;;5100998;28;20050;-57
2023/01/24 03:53:17;;;;;;;26.73;14.70;;;3.30;99.90;;;;;;5098885;28;20056;-58
2023/01/24 03:55:43;;;;;;;28.05;15.15;;;3.30;99.90;;;;;;5081188;28;20079;-57
2023/01/24 03:58:10;;;;;;;28.30;14.20;;;3.10;99.90;;;;;;5080708;28;20050;-58
2023/01/24 04:00:37;;;;;;;27.33;15.60;;;3.20;99.90;;;;;;5080929;28;20040;-57
2023/01/24 04:03:02;;;;;;;25.73;14.75;;;3.20;99.90;;;;;;5081005;28;20040;-57
2023/01/24 04:05:28;;;;;;;25.33;15.50;;;3.10;99.90;;;;;;5096594;28;20048;-57
2023/01/24 04:07:55;;;;;;;24.33;14.30;;;3.30;99.90;;;;;;5100785;28;20115;-58
2023/01/24 04:10:21;;;;;;;23.20;14.48;;;3.10;99.90;;;;;;5101294;28;20083;-56
2023/01/24 04:12:47;;;;;;;25.67;14.73;;;3.20;99.90;;;;;;5101108;28;20052;-57
2023/01/24 04:15:21;;;;;;;24.13;13.55;;;3.10;99.90;;;;;;5100782;28;20052;-58
2023/01/24 04:17:47;;;;;;;23.48;13.65;;;3.10;99.90;;;;;;5100569;28;20044;-58
2023/01/24 04:20:13;;;;;;;24.77;14.18;;;3.10;99.90;;;;;;5101170;28;20099;-58
2023/01/24 04:22:39;;;;;;;24.98;14.38;;;3.20;99.90;;;;;;5101023;28;20372;-58
2023/01/24 04:25:06;;;;;;;22.90;13.75;;;3.30;99.90;;;;;;5101372;28;20040;-56
2023/01/24 04:27:31;;;;;;;23.98;14.63;;;3.40;99.90;;;;;;5100948;28;20048;-57
2023/01/24 04:29:57;;;;;;;25.90;14.18;;;3.20;99.90;;;;;;5104830;28;20067;-58
2023/01/24 04:32:23;;;;;;;25.50;15.07;;;3.30;99.90;;;;;;5105063;28;20448;-58
2023/01/24 04:34:48;;;;;;;24.38;14.55;;;3.20;99.90;;;;;;5104978;28;20086;-57
2023/01/24 04:37:14;;;;;;;26.33;15.65;;;3.30;99.90;;;;;;5104760;28;20067;-58
2023/01/24 04:39:40;;;;;;;24.30;14.20;;;3.10;99.90;;;;;;5104898;28;20082;-56
2023/01/24 04:42:06;;;;;;;24.05;15.20;;;3.40;99.90;;;;;;5105027;28;20096;-58
2023/01/24 04:44:32;;;;;;;26.75;15.23;;;3.30;99.90;;;;;;5104588;28;20040;-57
2023/01/24 04:46:59;;;;;;;26.38;16.67;;;3.30;99.90;;;;;;5104627;28;20044;-58
2023/01/24 04:49:25;;;;;;;28.20;16.27;;;3.30;99.90;;;;;;5104828;28;20047;-58
2023/01/24 04:51:51;;;;;;;26.92;15.90;;;3.20;99.90;;;;;;5104732;28;20047;-57
2023/01/24 04:54:17;;;;;;;25.70;15.35;;;3.40;99.90;;;;;;5093850;28;20074;-58
2023/01/24 04:56:43;;;;;;;28.20;17.17;;;3.10;99.90;;;;;;5084037;28;20049;-57
2023/01/24 04:59:11;;;;;;;28.60;16.77;;;3.10;99.90;;;;;;5084174;28;20051;-58
2023/01/24 05:01:38;;;;;;;21.88;14.45;;;3.20;99.90;;;;;;5084371;28;20047;-58
2023/01/24 05:04:04;;;;;;;21.48;13.38;;;3.10;99.90;;;;;;5066442;28;20072;-58
2023/01/24 05:06:31;;;;;;;21.70;13.55;;;3.20;99.90;;;;;;5084175;28;20055;-58
2023/01/24 05:08:57;;;;;;;18.98;12.45;;;3.10;99.90;;;;;;5083966;28;20053;-58
2023/01/24 05:11:24;;;;;;;19.92;12.65;;;3.30;99.90;;;;;;5065629;28;20535;-57
2023/01/24 05:13:50;;;;;;;20.27;12.93;;;3.20;99.90;;;;;;5083606;28;20067;-58
2023/01/24 05:16:16;;;;;;;20.33;12.40;;;3.20;99.90;;;;;;5084061;28;20607;-57
2023/01/24 05:18:42;;;;;;;20.75;13.25;;;3.10;99.90;;;;;;5083589;28;20574;-58
2023/01/24 05:21:16;;;;;;;19.42;12.77;;;3.10;99.90;;;;;;5084051;28;20033;-58
2023/01/24 05:23:42;;;;;;;20.50;13.25;;;3.20;99.90;;;;;;5083608;28;20049;-57
2023/01/24 05:26:08;;;;;;;22.83;13.07;;;3.20;99.90;;;;;;5083476;28;20041;-58
2023/01/24 05:28:34;;;;;;;23.33;14.10;;;3.20;99.90;;;;;;5083701;28;20067;-58
2023/01/24 05:31:02;;;;;;;22.45;13.80;;;3.20;99.90;;;;;;5065660;28;20043;-58
2023/01/24 05:33:28;;;;;;;24.80;14.80;;;3.20;99.90;;;;;;5083846;28;20037;-57
2023/01/24 05:36:17;;;;;;;23.40;14.30;;;3.10;99.90;;;;;;5083477;28;20082;-58
2023/01/24 05:38:43;;;;;;;23.83;15.20;;;3.10;99.90;;;;;;5082631;28;20056;-57
2023/01/24 05:41:11;;;;;;;24.10;14.55;;;3.30;99.90;;;;;;5082584;28;20047;-58
2023/01/24 05:43:37;;;;;;;22.80;14.80;;;3.10;99.90;;;;;;5083412;28;20101;-57
2023/01/24 05:46:06;;;;;;;22.58;14.48;;;3.00;99.90;;;;;;5083723;28;20074;-56
2023/01/24 05:48:32;;;;;;;21.27;14.30;;;3.10;99.90;;;;;;5083205;28;20043;-57
2023/01/24 05:51:06;;;;;;;20.42;13.25;;;3.00;99.90;;;;;;5083432;28;20104;-57
2023/01/24 05:53:34;;;;;;;22.77;14.82;;;3.10;99.90;;;;;;5087482;28;20091;-57
2023/01/24 05:56:03;;;;;;;22.75;14.70;;;3.10;99.90;;;;;;5103288;28;20056;-57
2023/01/24 05:58:32;;;;;;;22.45;13.98;;;3.10;99.90;;;;;;5103138;28;20040;-58
2023/01/24 06:00:58;;;;;;;24.95;15.00;;;3.10;99.90;;;;;;5103351;28;20101;-58
2023/01/24 06:03:23;;;;;;;25.98;14.75;;;3.10;99.90;;;;;;5103372;28;20452;-58
2023/01/24 06:05:52;;;;;;;26.52;16.23;;;3.20;99.90;;;;;;5103273;28;20375;-57
2023/01/24 06:08:18;;;;;;;23.27;14.65;;;3.00;99.90;;;;;;5103418;28;20073;-57
2023/01/24 06:10:44;;;;;;;23.30;14.68;;;3.20;99.90;;;;;;5103100;28;20040;-58
2023/01/24 06:13:10;;;;;;;25.10;15.07;;;3.10;99.90;;;;;;5102643;28;20680;-58
2023/01/24 06:15:36;;;;;;;23.95;14.93;;;3.10;99.90;;;;;;5100132;28;20051;-58
2023/01/24 06:18:03;;;;;;;24.02;15.27;;;3.10;99.90;;;;;;5091915;28;20044;-57
2023/01/24 06:20:28;;;;;;;25.13;16.48;;;3.20;99.90;;;;;;5090180;28;20080;-58
2023/01/24 06:23:02;;;;;;;25.77;15.07;;;3.00;99.90;;;;;;5088403;28;20568;-57
2023/01/24 06:25:28;;;;;;;26.67;15.73;;;3.20;99.90;;;;;;5088325;28;20031;-57
2023/01/24 06:27:54;;;;;;;24.88;15.45;;;3.10;99.90;;;;;;5084152;28;20378;-58
2023/01/24 06:30:21;;;;;;;21.85;14.05;;;3.00;99.90;;;;;;5079119;28;20961;-57
2023/01/24 06:33:08;;;;;;;26.65;15.15;;;3.00;99.90;;;;;;5044508;28;20503;-57
2023/01/24 06:36:11;;;;;;;26.73;15.10;;;3.10;99.90;;;;;;5078916;28;20044;-57
2023/01/24 06:38:37;;;;;;;24.55;15.38;;;3.10;99.90;;;;;;5078840;28;20140;-55
2023/01/24 06:41:09;;;;;;;27.00;16.52;;;3.00;99.90;;;;;;5060646;28;20060;-56
2023/01/24 06:43:35;;;;;;;25.95;15.95;;;3.00;99.90;;;;;;5078790;28;20048;-57
2023/01/24 06:46:01;;;;;;;26.08;16.13;;;3.00;99.90;;;;;;5060715;28;20045;-56
2023/01/24 06:48:26;;;;;;;23.45;14.73;;;3.00;99.90;;;;;;5078526;28;20052;-56
2023/01/24 06:50:53;;;;;;;26.83;15.95;;;2.90;99.90;;;;;;5078562;28;20032;-54
2023/01/24 06:53:19;;;;;;;26.90;14.75;;;3.00;99.90;;;;;;5081242;28;20040;-55
2023/01/24 06:55:45;;;;;;;29.13;16.02;;;2.90;99.90;;;;;;5099132;28;20586;-57
2023/01/24 06:58:11;;;;;;;24.85;14.32;;;2.90;99.90;;;;;;5098889;28;20040;-56
2023/01/24 07:00:37;;;;;;;23.40;12.90;;;2.90;99.90;;;;;;5098859;28;20051;-58
2023/01/24 07:03:07;;;;;;;25.08;14.30;;;2.90;99.90;;;;;;5098464;28;20044;-57
2023/01/24 07:05:34;;;;;;;23.95;14.20;;;2.80;99.90;;;;;;5098693;28;20105;-57
2023/01/24 07:08:00;;;;;;;24.42;14.45;;;2.90;99.90;;;;;;5098890;28;20495;-57
2023/01/24 07:10:26;;;;;;;27.20;14.30;;;2.90;99.90;;;;;;5098316;28;20127;-56
2023/01/24 07:12:52;;;;;;;24.75;14.32;;;2.90;99.90;;;;;;5098222;28;20170;-56
2023/01/24 07:15:18;;;;;;;24.55;14.52;;;3.10;99.90;;;;;;5098039;28;20066;-57
2023/01/24 07:17:44;;;;;;;25.95;15.48;;;3.00;99.90;;;;;;5097390;28;20036;-56
2023/01/24 07:20:12;;;;;;;27.23;16.52;;;3.00;99.90;;;;;;5095704;28;20099;-56
2023/01/24 07:22:38;;;;;;;23.73;14.85;;;3.00;99.90;;;;;;5097840;28;20404;-56
2023/01/24 07:25:15;;;;;;;29.50;15.70;;;2.90;99.90;;;;;;5098206;28;20878;-56
2023/01/24 07:27:42;;;;;;;26.52;15.27;;;3.00;99.90;;;;;;5097413;28;20052;-56
2023/01/24 07:30:10;;;;;;;25.77;15.07;;;2.90;99.90;;;;;;5097595;28;20123;-57
2023/01/24 07:32:36;;;;;;;25.63;15.88;;;3.00;99.90;;;;;;5077838;28;20850;-57
2023/01/24 07:35:02;;;;;;;26.98;15.23;;;2.80;99.90;;;;;;5077639;28;20556;-56
2023/01/24 07:37:27;;;;;;;28.42;15.10;;;2.80;99.90;;;;;;5077616;28;20045;-56
2023/01/24 07:39:53;;;;;;;27.35;15.40;;;2.80;99.90;;;;;;5077514;28;20128;-57
2023/01/24 07:42:18;;;;;;;27.15;15.82;;;2.80;99.90;;;;;;5078264;28;20087;-57
2023/01/24 07:44:44;;;;;;;26.52;15.18;;;2.80;99.90;;;;;;5077887;28;20052;-56
2023/01/24 07:47:10;;;;;;;28.02;15.40;;;2.90;99.90;;;;;;5059496;28;20060;-56
2023/01/24 07:49:35;;;;;;;30.88;16.83;;;2.90;99.90;;;;;;5077701;28;20063;-56
2023/01/24 07:52:01;;;;;;;30.17;16.10;;;2.90;99.90;;;;;;5076961;28;20051;-56
2023/01/24 07:54:27;;;;;;;31.00;17.20;;;3.00;99.90;;;;;;5089854;28;20055;-56
2023/01/24 07:56:52;;;;;;;26.83;15.77;;;3.00;99.90;;;;;;5097664;28;20080;-56
2023/01/24 07:59:18;;;;;;;30.70;16.85;;;2.80;99.90;;;;;;5098093;28;20052;-57
2023/01/24 08:01:44;;;;;;;31.02;17.15;;;3.00;99.90;;;;;;5083252;28;20040;-56
2023/01/24 08:04:09;;;;;;;26.48;15.75;;;2.80;99.90;;;;;;5076997;28;20045;-56
2023/01/24 08:06:35;;;;;;;29.08;15.82;;;3.00;99.90;;;;;;5077400;28;20048;-57
2023/01/24 08:09:01;;;;;;;25.85;15.48;;;2.90;99.90;;;;;;5077520;28;20041;-56
2023/01/24 08:11:27;;;;;;;27.17;16.48;;;3.00;99.90;;;;;;5059207;28;20690;-57
2023/01/24 08:13:54;;;;;;;24.05;13.85;;;2.90;99.90;;;;;;5076686;28;20876;-57
2023/01/24 08:16:23;;;;;;;26.00;15.48;;;2.80;99.90;;;;;;5075928;28;20057;-57
2023/01/24 08:18:49;;;;;;;24.08;13.93;;;2.80;99.90;;;;;;5076335;28;20044;-57
2023/01/24 08:21:14;;;;;;;24.55;14.05;;;3.00;99.90;;;;;;5076393;28;20032;-57
2023/01/24 08:23:40;;;;;;;25.30;14.20;;;3.00;99.90;;;;;;5076160;28;20049;-57
2023/01/24 08:26:06;;;;;;;24.92;14.18;;;3.10;99.90;;;;;;5084367;28;20694;-57
2023/01/24 08:28:32;;;;;;;23.80;13.63;;;2.80;99.90;;;;;;5049399;28;20048;-56
2023/01/24 08:30:59;;;;;;;19.92;12.20;;;2.90;99.90;;;;;;5086086;28;20519;-57
2023/01/24 08:33:25;;;;;;;22.35;12.38;;;3.00;99.90;;;;;;5086739;28;20036;-56
2023/01/24 08:35:51;;;;;;;20.70;13.38;;;2.90;99.90;;;;;;5084606;28;20041;-57
2023/01/24 08:38:16;;;;;;;19.95;12.07;;;3.00;99.90;;;;;;5085438;28;20044;-57
2023/01/24 08:40:43;;;;;;;23.15;13.23;;;3.00;99.90;;;;;;5084757;28;20036;-57
2023/01/24 08:43:09;;;;;;;20.77;11.98;;;2.90;99.90;;;;;;5087098;28;20062;-57
2023/01/24 08:45:35;;;;;;;22.27;13.15;;;2.90;99.90;;;;;;5084873;28;20041;-57
2023/01/24 08:48:01;;;;;;;20.58;12.05;;;2.90;99.90;;;;;;5085376;28;20036;-57
2023/01/24 08:50:27;;;;;;;18.40;11.07;;;3.00;99.90;;;;;;5085594;28;20048;-57
2023/01/24 08:52:57;;;;;;;17.98;11.43;;;3.00;99.90;;;;;;5071175;28;20036;-56
2023/01/24 08:55:23;;;;;;;18.67;11.23;;;3.00;99.90;;;;;;5082239;28;20052;-57
2023/01/24 08:57:49;;;;;;;20.50;11.90;;;3.00;99.90;;;;;;5086228;28;20044;-57
2023/01/24 09:00:15;;;;;;;19.15;11.57;;;2.90;99.90;;;;;;5086457;28;20067;-57
2023/01/24 09:02:41;;;;;;;18.63;10.98;;;2.90;99.90;;;;;;5084611;28;20059;-56
2023/01/24 09:05:07;;;;;;;19.95;10.82;;;3.00;99.90;;;;;;5086683;28;20723;-57
2023/01/24 09:07:36;;;;;;;19.77;11.43;;;3.00;99.90;;;;;;5086328;28;20101;-55
2023/01/24 09:10:03;;;;;;;20.10;11.25;;;3.00;99.90;;;;;;5094650;28;20108;-57
2023/01/24 09:12:29;;;;;;;19.23;10.95;;;3.20;99.90;;;;;;5096111;28;20055;-57
2023/01/24 09:14:54;;;;;;;17.63;10.68;;;2.90;99.90;;;;;;5095834;28;20101;-57
2023/01/24 09:17:20;;;;;;;18.02;11.02;;;2.90;99.90;;;;;;5099047;28;20070;-57
2023/01/24 09:19:45;;;;;;;18.73;10.75;;;3.10;99.90;;;;;;5099012;28;20104;-57
2023/01/24 09:22:11;;;;;;;16.77;9.85;;;3.00;99.90;;;;;;5099852;28;20040;-57
2023/01/24 09:24:37;;;;;;;18.58;10.52;;;3.10;99.90;;;;;;5099393;28;20036;-58
2023/01/24 09:27:02;;;;;;;20.52;11.68;;;3.00;99.90;;;;;;5099283;28;20040;-55
2023/01/24 09:29:28;;;;;;;18.85;11.27;;;3.10;99.90;;;;;;5081523;28;20042;-57
2023/01/24 09:31:54;;;;;;;20.23;10.73;;;3.00;99.90;;;;;;5099195;28;20036;-57
2023/01/24 09:34:20;;;;;;;16.55;10.10;;;3.00;99.90;;;;;;5099667;28;20051;-57
2023/01/24 09:36:49;;;;;;;17.98;10.50;;;2.90;99.90;;;;;;5080902;28;20090;-57
2023/01/24 09:39:16;;;;;;;17.40;10.05;;;3.00;99.90;;;;;;5096672;28;20044;-57
2023/01/24 09:41:45;;;;;;;18.60;11.05;;;3.00;99.90;;;;;;5089219;28;20090;-56
2023/01/24 09:44:22;;;;;;;18.10;10.55;;;3.00;99.90;;;;;;5088438;28;20049;-56
2023/01/24 09:46:53;;;;;;;18.15;10.68;;;2.90;99.90;;;;;;5088186;28;20056;-57
2023/01/24 09:49:37;;;;;;;19.17;10.60;;;3.00;99.90;;;;;;5087712;28;20051;-56
2023/01/24 09:52:07;;;;;;;16.77;9.73;;;3.10;99.90;;;;;;5089316;28;20068;-57
2023/01/24 09:54:56;;;;;;;17.45;9.73;;;3.10;99.90;;;;;;5093779;28;20093;-57
2023/01/24 09:57:40;;;;;;;17.15;10.10;;;3.10;99.90;;;;;;5102016;28;20044;-54
2023/01/24 10:00:29;;;;;;;20.02;11.00;;;3.10;99.90;;;;;;5102444;28;20067;-57
2023/01/24 10:02:58;;;;;;;18.75;11.10;;;3.10;99.90;;;;;;5083498;28;20050;-57
2023/01/24 10:05:38;;;;;;;20.30;11.02;;;3.10;99.90;;;;;;5102002;28;20036;-58
2023/01/24 10:08:09;;;;;;;18.58;11.25;;;3.10;99.90;;;;;;5101517;28;20051;-58
2023/01/24 10:11:02;;;;;;;18.02;11.05;;;3.00;99.90;;;;;;5102072;28;20036;-60
2023/01/24 10:13:50;;;;;;;17.10;9.75;;;3.10;99.90;;;;;;5101804;28;20048;-58
2023/01/24 10:16:26;;;;;;;16.85;9.45;;;3.20;99.90;;;;;;5101296;28;20048;-58
2023/01/24 10:19:19;;;;;;;16.80;9.80;;;3.20;99.90;;;;;;5101716;28;20059;-57
2023/01/24 10:21:45;;;;;;;16.05;8.85;;;3.10;99.90;;;;;;5102273;28;20040;-58
2023/01/24 10:24:23;;;;;;;15.65;9.05;;;3.20;99.90;;;;;;5101274;28;20044;-58
2023/01/24 10:26:51;;;;;;;15.82;8.98;;;3.10;99.90;;;;;;5101565;28;20488;-58
2023/01/24 10:29:30;;;;;;;14.90;8.88;;;3.20;99.90;;;;;;5101807;28;20048;-58
2023/01/24 10:32:03;;;;;;;17.55;9.30;;;3.30;99.90;;;;;;5101610;28;20066;-58
2023/01/24 10:34:41;;;;;;;16.80;8.95;;;3.20;99.90;;;;;;5101482;28;20044;-57
2023/01/24 10:37:07;;;;;;;16.23;9.30;;;3.30;99.90;;;;;;5100996;28;20048;-58
2023/01/24 10:39:32;;;;;;;17.73;9.93;;;3.30;99.90;;;;;;5101640;28;20047;-58
2023/01/24 10:41:58;;;;;;;15.40;8.98;;;3.30;99.90;;;;;;5101394;28;20044;-58
2023/01/24 10:44:29;;;;;;;17.13;9.30;;;3.30;99.90;;;;;;5101256;28;20086;-57
2023/01/24 10:47:09;;;;;;;15.88;8.43;;;3.20;99.90;;;;;;5101415;28;20048;-57
2023/01/24 10:49:39;;;;;;;16.30;9.10;;;3.30;99.90;;;;;;5100700;28;20096;-57
2023/01/24 10:52:17;;;;;;;15.00;8.70;;;3.20;99.90;;;;;;5101437;28;20043;-57
2023/01/24 10:54:53;;;;;;;17.33;10.55;;;3.40;99.90;;;;;;5086564;28;20060;-58
2023/01/24 10:57:37;;;;;;;17.02;9.85;;;3.20;99.90;;;;;;5080500;28;20059;-58
2023/01/24 11:00:14;;;;;;;18.27;10.45;;;3.30;99.90;;;;;;5081134;28;20076;-58
2023/01/24 11:02:42;;;;;;;18.58;10.40;;;3.30;99.90;;;;;;5080017;28;20041;-58
2023/01/24 11:05:13;;;;;;;18.88;9.95;;;3.30;99.90;;;;;;5080447;28;20047;-57
2023/01/24 11:07:48;;;;;;;16.53;9.60;;;3.30;99.90;;;;;;5062164;28;20033;-57
2023/01/24 11:10:17;;;;;;;15.90;9.40;;;3.30;99.90;;;;;;5080630;28;20282;-56
2023/01/24 11:12:55;;;;;;;18.35;10.00;;;3.40;99.90;;;;;;5080849;28;20080;-57
2023/01/24 11:15:29;;;;;;;17.10;9.98;;;3.40;99.90;;;;;;5080078;28;20100;-58
2023/01/24 11:18:20;;;;;;;16.60;9.43;;;3.50;99.90;;;;;;5080328;28;20051;-57
2023/01/24 11:20:46;;;;;;;17.55;9.70;;;3.40;99.90;;;;;;5071646;28;20574;-57
2023/01/24 11:23:17;;;;;;;18.10;10.63;;;3.40;99.90;;;;;;5079995;28;20055;-58
2023/01/24 11:26:03;;;;;;;18.80;10.38;;;3.30;99.90;;;;;;5080847;28;20047;-57
2023/01/24 11:28:37;;;;;;;18.48;11.15;;;3.50;99.90;;;;;;5079838;28;20083;-57
2023/01/24 11:31:14;;;;;;;16.73;9.95;;;3.30;99.90;;;;;;5080348;28;20071;-57
2023/01/24 11:34:22;;;;;;;17.42;10.55;;;3.50;99.90;;;;;;5080288;28;20047;-56
2023/01/24 11:36:59;;;;;;;18.27;10.18;;;3.40;99.90;;;;;;5080067;28;20083;-57
2023/01/24 11:39:45;;;;;;;17.20;10.32;;;3.40;99.90;;;;;;5079738;28;20047;-57
2023/01/24 11:42:21;;;;;;;16.50;9.70;;;3.30;99.90;;;;;;5080174;28;20128;-57
2023/01/24 11:45:04;;;;;;;19.27;11.02;;;3.40;99.90;;;;;;5080034;28;20518;-56
2023/01/24 11:47:39;;;;;;;16.17;9.10;;;3.50;99.90;;;;;;5079948;28;20048;-57
2023/01/24 11:50:27;;;;;;;17.90;10.20;;;3.40;99.90;;;;;;5079708;28;20040;-58
2023/01/24 11:53:31;;;;;;;16.25;9.40;;;3.40;99.90;;;;;;5080107;28;20047;-57
2023/01/24 11:56:20;;;;;;;19.50;10.65;;;3.40;99.90;;;;;;5090054;28;20051;-57
2023/01/24 11:59:08;;;;;;;18.52;9.77;;;3.50;99.90;;;;;;5076421;28;20114;-57
2023/01/24 12:02:09;;;;;;;17.00;10.02;;;3.30;99.90;;;;;;5080450;28;20056;-57
2023/01/24 12:04:59;;;;;;;18.48;9.88;;;3.20;99.90;;;;;;5084144;28;20052;-58
2023/01/24 12:07:55;;;;;;;17.05;9.73;;;3.20;99.90;;;;;;5091275;28;20052;-58
2023/01/24 12:10:42;;;;;;;15.23;8.95;;;3.30;99.90;;;;;;5087654;28;20040;-57
2023/01/24 12:13:16;;;;;;;17.75;9.88;;;3.40;99.90;;;;;;5083101;28;20078;-58
2023/01/24 12:16:00;;;;;;;18.65;9.38;;;3.30;99.90;;;;;;5078179;28;20048;-57
2023/01/24 12:18:46;;;;;;;16.92;9.75;;;3.40;99.90;;;;;;5078036;28;20075;-58
2023/01/24 12:21:13;;;;;;;16.48;9.38;;;3.30;99.90;;;;;;5078418;28;20052;-58
2023/01/24 12:23:49;;;;;;;16.13;9.60;;;3.30;99.90;;;;;;5078746;28;20586;-58
2023/01/24 12:26:20;;;;;;;16.90;10.15;;;3.40;99.90;;;;;;5077399;28;20068;-58
2023/01/24 12:28:59;;;;;;;17.77;10.63;;;3.40;99.90;;;;;;5066184;28;20077;-58
2023/01/24 12:31:58;;;;;;;16.50;9.85;;;3.90;99.90;;;;;;5059226;28;20064;-58
2023/01/24 12:34:26;;;;;;;18.33;10.15;;;3.30;99.90;;;;;;5013585;28;20060;-57
2023/01/24 12:36:59;;;;;;;19.73;10.32;;;3.30;99.90;;;;;;5058884;28;20049;-57
2023/01/24 12:39:37;;;;;;;19.10;10.63;;;3.20;99.90;;;;;;5058880;28;20045;-58
2023/01/24 12:42:13;;;;;;;15.93;9.63;;;3.30;99.90;;;;;;5059137;28;20045;-57
2023/01/24 12:44:47;;;;;;;17.55;10.52;;;3.30;99.90;;;;;;5059132;28;20105;-57
2023/01/24 12:47:36;;;;;;;16.80;10.15;;;3.30;99.90;;;;;;5058286;28;20084;-58
2023/01/24 12:50:07;;;;;;;17.50;10.02;;;3.40;99.90;;;;;;5043032;28;20108;-58
2023/01/24 12:52:59;;;;;;;19.38;10.40;;;3.30;99.90;;;;;;5063643;28;20049;-58
2023/01/24 12:55:31;;;;;;;17.17;9.80;;;3.30;99.90;;;;;;5026180;28;20521;-57
2023/01/24 12:58:26;;;;;;;16.17;9.35;;;3.40;99.90;;;;;;5062821;28;20104;-58
2023/01/24 13:01:01;;;;;;;18.20;9.95;;;3.50;99.90;;;;;;5055169;28;20049;-58
2023/01/24 13:03:35;;;;;;;17.58;10.10;;;3.40;99.90;;;;;;5063123;28;20125;-57
2023/01/24 13:06:16;;;;;;;16.80;9.55;;;3.30;99.90;;;;;;5062693;28;20060;-58
2023/01/24 13:09:21;;;;;;;17.30;9.77;;;3.40;99.90;;;;;;5062665;28;20045;-57
2023/01/24 13:11:49;;;;;;;19.13;11.10;;;3.50;99.90;;;;;;5062306;28;20080;-57
2023/01/24 13:14:24;;;;;;;17.98;11.02;;;3.50;99.90;;;;;;5062606;28;20140;-57
2023/01/24 13:17:13;;;;;;;16.42;9.68;;;3.50;99.90;;;;;;5062519;28;20128;-57
2023/01/24 13:20:09;;;;;;;18.90;10.05;;;3.50;99.90;;;;;;5062177;28;20064;-57
2023/01/24 13:22:53;;;;;;;18.98;10.35;;;3.50;99.90;;;;;;5062581;28;20057;-58
2023/01/24 13:25:59;;;;;;;15.98;9.15;;;3.50;99.90;;;;;;5062424;28;20045;-58
2023/01/24 13:28:44;;;;;;;19.40;10.70;;;3.50;99.90;;;;;;5056955;28;20040;-57
2023/01/24 13:31:31;;;;;;;18.77;10.35;;;3.40;99.90;;;;;;5062761;28;20546;-56
2023/01/24 13:34:03;;;;;;;18.02;10.98;;;3.40;99.90;;;;;;5062529;28;20075;-58
2023/01/24 13:36:33;;;;;;;20.35;11.50;;;3.40;99.90;;;;;;5061679;28;20052;-58
2023/01/24 13:39:00;;;;;;;17.63;10.48;;;3.40;99.90;;;;;;5062354;28;20049;-58